Time;durP1;ratioP1;P1;durP2;ratioP2;P2;SDS_P1;SDS_P2;PMS_P1;PMS_P2;Temp;Humidity;BMP_temperature;BMP_pressure;BME280_temperature;BME280_humidity;BME280_pressure;Samples;Min_cycle;Max_cycle;Signal;HPM_P1;HPM_P2
2022/05/06 00:01:28;;;;;;;5.00;4.60;;;20.10;54.30;;;;;;5082843;28;20472;-48
2022/05/06 00:03:57;;;;;;;4.53;4.13;;;20.10;54.30;;;;;;5082229;28;20514;-47
2022/05/06 00:06:29;;;;;;;4.40;4.00;;;20.10;54.30;;;;;;5063745;28;20885;-48
2022/05/06 00:08:57;;;;;;;3.90;3.60;;;20.10;54.30;;;;;;5093924;28;20509;-47
2022/05/06 00:11:26;;;;;;;4.60;4.20;;;20.10;54.40;;;;;;5083981;28;20536;-47
2022/05/06 00:13:54;;;;;;;5.53;5.03;;;20.10;54.30;;;;;;5083133;28;20611;-47
2022/05/06 00:16:23;;;;;;;4.60;4.20;;;20.10;54.40;;;;;;5081333;28;21203;-48
2022/05/06 00:18:53;;;;;;;5.67;5.07;;;20.10;54.50;;;;;;5083124;28;20430;-47
2022/05/06 00:21:22;;;;;;;4.90;4.10;;;20.10;54.40;;;;;;5080500;28;20541;-46
2022/05/06 00:23:50;;;;;;;5.33;4.83;;;20.10;54.30;;;;;;5101511;28;20443;-48
2022/05/06 00:26:18;;;;;;;5.53;5.03;;;20.00;54.30;;;;;;5083444;28;20816;-47
2022/05/06 00:28:46;;;;;;;4.73;4.33;;;20.10;54.30;;;;;;5064839;28;20533;-46
2022/05/06 00:31:14;;;;;;;4.93;4.43;;;20.00;54.40;;;;;;5063737;28;20568;-46
2022/05/06 00:33:43;;;;;;;4.70;4.30;;;20.00;54.30;;;;;;5099157;28;20775;-49
2022/05/06 00:36:11;;;;;;;5.97;4.10;;;20.00;54.40;;;;;;5077929;28;20545;-47
2022/05/06 00:38:42;;;;;;;5.30;4.80;;;20.00;54.50;;;;;;5079568;28;20469;-47
2022/05/06 00:41:11;;;;;;;5.80;4.20;;;20.00;54.50;;;;;;5078058;28;20452;-48
2022/05/06 00:43:40;;;;;;;4.40;4.10;;;20.00;54.60;;;;;;5082276;28;20445;-48
2022/05/06 00:46:12;;;;;;;4.97;4.47;;;20.00;54.50;;;;;;5081235;28;20465;-47
2022/05/06 00:48:44;;;;;;;4.73;4.33;;;20.00;54.50;;;;;;5056517;28;20727;-49
2022/05/06 00:51:13;;;;;;;5.17;4.67;;;20.00;54.40;;;;;;5094105;28;20436;-46
2022/05/06 00:53:43;;;;;;;4.60;4.20;;;20.00;54.50;;;;;;5105108;28;20523;-48
2022/05/06 00:56:12;;;;;;;4.20;3.87;;;20.00;54.70;;;;;;5084278;28;20938;-47
2022/05/06 00:58:41;;;;;;;5.00;4.60;;;20.00;54.70;;;;;;5084074;28;20449;-46
2022/05/06 01:01:09;;;;;;;4.53;4.13;;;20.00;54.60;;;;;;5086505;28;20952;-47
2022/05/06 01:03:37;;;;;;;4.63;4.13;;;20.00;54.70;;;;;;5068768;28;20436;-47
2022/05/06 01:06:10;;;;;;;4.93;4.43;;;20.00;54.80;;;;;;5081211;28;20572;-46
2022/05/06 01:08:39;;;;;;;4.70;4.20;;;20.00;54.80;;;;;;5068227;28;20439;-47
2022/05/06 01:11:13;;;;;;;4.23;3.83;;;20.00;54.80;;;;;;5062756;28;20471;-45
2022/05/06 01:13:44;;;;;;;5.03;4.63;;;20.00;54.90;;;;;;5073055;28;20541;-47
2022/05/06 01:16:19;;;;;;;4.73;4.33;;;20.00;54.80;;;;;;5067192;28;20462;-47
2022/05/06 01:18:52;;;;;;;3.87;3.50;;;20.00;55.00;;;;;;5068331;28;20863;-46
2022/05/06 01:21:25;;;;;;;4.80;4.37;;;20.00;55.00;;;;;;5079934;28;20453;-47
2022/05/06 01:23:54;;;;;;;4.10;3.80;;;20.00;55.00;;;;;;5067966;28;20928;-47
2022/05/06 01:26:22;;;;;;;5.03;4.57;;;20.00;54.90;;;;;;5085431;28;20479;-47
2022/05/06 01:28:54;;;;;;;5.80;4.03;;;20.00;55.00;;;;;;5106015;28;20936;-46
2022/05/06 01:31:25;;;;;;;4.43;4.13;;;20.00;55.10;;;;;;5087737;28;21018;-48
2022/05/06 01:33:55;;;;;;;5.37;4.40;;;19.90;54.80;;;;;;5106102;28;20436;-48
2022/05/06 01:36:27;;;;;;;4.73;4.33;;;19.90;54.90;;;;;;5081375;28;21500;-48
2022/05/06 01:39:01;;;;;;;5.27;4.70;;;19.90;54.80;;;;;;5086031;28;20869;-47
2022/05/06 01:41:33;;;;;;;5.10;4.60;;;19.90;54.80;;;;;;5065804;28;20463;-49
2022/05/06 01:44:17;;;;;;;4.87;4.47;;;19.90;54.80;;;;;;5084405;28;20499;-46
2022/05/06 01:46:48;;;;;;;5.10;4.70;;;19.90;54.70;;;;;;5066431;28;20890;-46
2022/05/06 01:49:24;;;;;;;5.07;4.67;;;19.90;54.80;;;;;;5064221;28;20781;-46
2022/05/06 01:51:55;;;;;;;5.33;4.90;;;19.90;54.80;;;;;;5087485;28;20555;-47
2022/05/06 01:54:27;;;;;;;5.40;4.90;;;19.90;54.90;;;;;;5086779;28;20443;-47
2022/05/06 01:56:56;;;;;;;4.70;4.30;;;19.90;55.00;;;;;;5069237;28;20892;-48
2022/05/06 01:59:25;;;;;;;5.50;5.00;;;19.90;54.90;;;;;;5067734;28;20516;-48
2022/05/06 02:02:02;;;;;;;5.97;4.70;;;19.90;54.80;;;;;;5069994;28;20474;-48
2022/05/06 02:07:19;;;;;;;4.80;4.40;;;19.90;54.80;;;;;;5102195;28;20607;-47
2022/05/06 02:09:49;;;;;;;5.07;4.67;;;19.90;55.00;;;;;;5073333;28;20433;-47
2022/05/06 02:12:23;;;;;;;5.63;5.07;;;19.80;54.80;;;;;;5060386;28;20474;-47
2022/05/06 02:15:10;;;;;;;5.27;4.87;;;19.80;54.80;;;;;;5073014;28;20520;-47
2022/05/06 02:18:09;;;;;;;4.83;4.43;;;19.80;56.10;;;;;;5072798;28;20475;-47
2022/05/06 02:21:09;;;;;;;4.77;4.33;;;19.80;54.90;;;;;;5084737;28;20441;-48
2022/05/06 02:24:07;;;;;;;5.90;5.30;;;19.80;55.00;;;;;;5034748;28;20461;-48
2022/05/06 02:27:03;;;;;;;5.40;5.00;;;19.80;55.10;;;;;;5067432;28;20473;-47
2022/05/06 02:29:32;;;;;;;6.37;5.80;;;19.80;54.90;;;;;;5072772;28;20963;-49
2022/05/06 02:34:51;;;;;;;4.83;4.40;;;19.80;55.00;;;;;;5038548;28;20957;-47
2022/05/06 02:37:19;;;;;;;6.07;5.47;;;19.80;55.10;;;;;;5073111;28;20463;-48
2022/05/06 02:39:51;;;;;;;5.63;5.13;;;19.80;55.10;;;;;;5072594;28;20430;-48
2022/05/06 02:42:25;;;;;;;5.47;4.97;;;19.80;55.10;;;;;;5092878;27;20897;-45
2022/05/06 02:44:53;;;;;;;5.37;4.87;;;19.80;55.10;;;;;;5089556;28;20452;-45
2022/05/06 02:47:22;;;;;;;5.47;4.97;;;19.80;55.10;;;;;;5071582;28;20530;-47
2022/05/06 02:49:51;;;;;;;5.83;5.33;;;19.70;55.00;;;;;;5089699;28;20460;-49
2022/05/06 02:52:20;;;;;;;6.20;5.70;;;19.70;55.00;;;;;;5090377;28;20995;-46
2022/05/06 02:54:49;;;;;;;6.07;5.50;;;19.70;55.00;;;;;;5071881;28;20432;-46
2022/05/06 02:57:20;;;;;;;7.07;6.47;;;19.70;55.10;;;;;;5084963;28;20586;-47
2022/05/06 02:59:50;;;;;;;5.40;4.93;;;19.70;55.00;;;;;;5072568;28;20466;-47
2022/05/06 03:02:23;;;;;;;5.43;5.03;;;19.70;55.00;;;;;;5068555;28;20472;-47
2022/05/06 03:04:52;;;;;;;5.87;5.27;;;19.70;55.10;;;;;;5091136;27;20454;-48
2022/05/06 03:07:21;;;;;;;5.83;5.33;;;19.70;55.10;;;;;;5062944;28;20480;-47
2022/05/06 03:09:53;;;;;;;6.20;5.70;;;19.70;55.10;;;;;;5066656;28;20822;-46
2022/05/06 03:12:26;;;;;;;5.40;5.00;;;19.70;55.10;;;;;;5061184;28;20550;-46
2022/05/06 03:15:07;;;;;;;5.53;4.93;;;19.70;55.90;;;;;;5070335;28;20432;-46
2022/05/06 03:17:40;;;;;;;5.60;5.10;;;19.70;55.20;;;;;;5084803;28;20773;-48
2022/05/06 03:20:09;;;;;;;5.93;5.43;;;19.70;55.10;;;;;;5076957;28;20537;-47
2022/05/06 03:22:42;;;;;;;5.37;4.87;;;19.70;55.10;;;;;;5101078;28;20553;-48
2022/05/06 03:25:11;;;;;;;6.13;5.53;;;19.70;55.10;;;;;;5099015;28;20609;-45
2022/05/06 03:30:28;;;;;;;6.70;6.10;;;19.70;55.20;;;;;;5087031;28;20446;-46
2022/05/06 03:33:09;;;;;;;6.07;5.53;;;19.70;55.10;;;;;;5086929;28;20472;-47
2022/05/06 03:35:40;;;;;;;6.40;5.90;;;19.60;55.20;;;;;;5073055;28;20462;-46
2022/05/06 03:38:09;;;;;;;6.40;5.90;;;19.60;55.10;;;;;;5065574;28;20471;-47
2022/05/06 03:40:41;;;;;;;7.10;6.50;;;19.60;55.10;;;;;;5060660;28;20440;-48
2022/05/06 03:43:10;;;;;;;6.93;6.10;;;19.60;55.10;;;;;;5065594;28;20537;-47
2022/05/06 03:45:41;;;;;;;6.10;5.50;;;19.60;55.10;;;;;;5082260;28;20477;-48
2022/05/06 03:48:11;;;;;;;5.80;5.30;;;19.60;55.20;;;;;;5102797;28;20472;-48
2022/05/06 03:53:33;;;;;;;4.90;4.40;;;19.60;55.30;;;;;;5074369;28;20475;-48
2022/05/06 03:56:01;;;;;;;5.40;4.90;;;19.60;55.40;;;;;;5053233;28;20546;-48
2022/05/06 03:58:34;;;;;;;5.57;5.07;;;19.60;55.40;;;;;;5089514;28;20460;-46
2022/05/06 04:01:07;;;;;;;5.53;5.10;;;19.60;55.40;;;;;;5050602;28;20865;-47
2022/05/06 04:03:38;;;;;;;5.90;5.40;;;19.60;55.50;;;;;;5098616;28;20459;-49
2022/05/06 04:06:06;;;;;;;5.10;4.70;;;19.50;55.50;;;;;;5074480;28;20494;-44
2022/05/06 04:08:35;;;;;;;5.40;4.90;;;19.50;55.30;;;;;;5065352;28;20474;-47
2022/05/06 04:11:04;;;;;;;6.13;5.53;;;19.50;55.30;;;;;;5064667;28;20472;-47
2022/05/06 04:13:35;;;;;;;5.87;5.27;;;19.50;55.40;;;;;;5065591;28;21014;-48
2022/05/06 04:16:03;;;;;;;6.37;5.77;;;19.50;55.40;;;;;;5065126;28;20461;-46
2022/05/06 04:18:34;;;;;;;5.97;5.47;;;19.50;55.40;;;;;;5081315;28;20514;-47
2022/05/06 04:23:48;;;;;;;5.10;4.70;;;19.50;55.50;;;;;;5054219;28;20466;-48
2022/05/06 04:26:17;;;;;;;5.23;4.83;;;19.50;55.60;;;;;;5053296;28;20470;-46
2022/05/06 04:28:53;;;;;;;6.00;5.50;;;19.50;55.60;;;;;;5076824;28;20515;-48
2022/05/06 04:31:22;;;;;;;5.57;5.00;;;19.50;55.60;;;;;;5077865;28;20457;-46
2022/05/06 04:33:55;;;;;;;5.23;4.83;;;19.50;55.60;;;;;;5091909;28;21759;-46
2022/05/06 04:36:31;;;;;;;5.20;4.70;;;19.50;56.80;;;;;;5067945;28;20467;-46
2022/05/06 04:39:04;;;;;;;5.90;5.40;;;19.50;55.60;;;;;;5071905;28;20524;-47
2022/05/06 04:41:36;;;;;;;5.60;5.10;;;19.50;55.70;;;;;;5061062;28;20464;-48
2022/05/06 04:44:05;;;;;;;5.23;4.73;;;19.50;55.70;;;;;;5070414;28;20451;-47
2022/05/06 04:46:36;;;;;;;6.17;5.60;;;19.40;55.60;;;;;;5071363;28;20456;-46
2022/05/06 04:49:06;;;;;;;5.47;4.97;;;19.40;55.70;;;;;;5078028;28;20938;-48
2022/05/06 04:51:37;;;;;;;5.10;4.70;;;19.40;55.80;;;;;;5085095;27;20526;-47
2022/05/06 04:54:07;;;;;;;6.07;5.57;;;19.40;55.80;;;;;;5070491;28;20530;-48
2022/05/06 04:56:36;;;;;;;5.00;4.50;;;19.40;55.80;;;;;;5082788;28;20861;-47
2022/05/06 04:59:13;;;;;;;5.60;5.10;;;19.40;55.90;;;;;;5104097;27;20526;-48
2022/05/06 05:01:47;;;;;;;5.23;4.83;;;19.40;55.90;;;;;;5084188;28;20472;-46
2022/05/06 05:04:17;;;;;;;6.20;5.60;;;19.40;55.90;;;;;;5064990;28;20442;-46
2022/05/06 05:06:47;;;;;;;4.87;4.57;;;19.40;55.90;;;;;;5091576;28;20478;-48
2022/05/06 05:09:18;;;;;;;5.60;5.10;;;19.40;56.00;;;;;;5092385;28;20429;-47
2022/05/06 05:11:49;;;;;;;5.07;4.67;;;19.40;56.00;;;;;;5069852;28;21000;-48
2022/05/06 05:14:27;;;;;;;4.93;4.53;;;19.40;56.10;;;;;;5078852;28;20970;-46
2022/05/06 05:16:56;;;;;;;5.70;5.13;;;19.40;56.20;;;;;;5081370;28;20591;-45
2022/05/06 05:19:27;;;;;;;5.33;4.83;;;19.40;56.20;;;;;;5080817;28;20439;-46
2022/05/06 05:21:58;;;;;;;6.00;5.30;;;19.40;56.10;;;;;;5091419;28;20980;-48
2022/05/06 05:24:27;;;;;;;7.40;6.80;;;19.40;56.10;;;;;;5085837;28;20501;-45
2022/05/06 05:26:57;;;;;;;6.57;6.00;;;19.30;56.00;;;;;;5071078;28;20478;-45
2022/05/06 05:29:30;;;;;;;6.33;5.83;;;19.30;56.00;;;;;;5069435;28;20517;-47
2022/05/06 05:32:03;;;;;;;6.30;5.70;;;19.30;56.00;;;;;;5070804;28;20808;-46
2022/05/06 05:34:33;;;;;;;7.63;6.83;;;19.40;56.10;;;;;;5061435;28;20440;-48
2022/05/06 05:37:01;;;;;;;7.30;6.60;;;19.40;56.00;;;;;;5089565;28;20472;-45
2022/05/06 05:39:31;;;;;;;7.63;6.93;;;19.40;56.10;;;;;;5107052;28;20500;-48
2022/05/06 05:42:03;;;;;;;6.80;6.20;;;19.30;56.00;;;;;;5069297;28;20464;-46
2022/05/06 05:50:09;;;;;;;6.13;5.60;;;19.40;56.30;;;;;;5056679;28;20955;-47
2022/05/06 05:52:38;;;;;;;7.20;6.50;;;19.40;56.40;;;;;;5066458;28;20480;-47
2022/05/06 05:55:08;;;;;;;6.97;5.90;;;19.30;56.20;;;;;;5098146;28;20808;-47
2022/05/06 05:57:37;;;;;;;7.40;6.70;;;19.30;56.20;;;;;;5070596;28;20977;-49
2022/05/06 06:00:07;;;;;;;7.40;6.80;;;19.30;56.20;;;;;;5080181;28;20438;-45
2022/05/06 06:02:40;;;;;;;8.27;7.40;;;19.30;56.20;;;;;;5065111;28;20478;-46
2022/05/06 06:05:13;;;;;;;5.77;5.30;;;19.30;56.30;;;;;;5062677;28;20447;-47
2022/05/06 06:07:44;;;;;;;7.70;6.93;;;19.30;56.40;;;;;;5066144;28;20471;-46
2022/05/06 06:10:14;;;;;;;6.70;6.10;;;19.30;56.30;;;;;;5064541;28;20451;-48
2022/05/06 06:12:43;;;;;;;7.23;6.30;;;19.30;56.40;;;;;;5079647;28;20463;-48
2022/05/06 06:15:12;;;;;;;8.40;7.13;;;19.30;57.50;;;;;;5046395;28;20439;-47
2022/05/06 06:17:40;;;;;;;6.70;5.97;;;19.30;56.40;;;;;;5078799;28;20504;-47
2022/05/06 06:20:13;;;;;;;7.17;6.50;;;19.30;56.40;;;;;;5067676;28;20484;-45
2022/05/06 06:22:45;;;;;;;7.83;7.10;;;19.30;56.50;;;;;;5079546;28;20959;-49
2022/05/06 06:25:15;;;;;;;8.10;7.40;;;19.30;56.50;;;;;;5081558;28;20561;-46
2022/05/06 06:27:44;;;;;;;8.27;6.47;;;19.30;56.60;;;;;;5047259;28;20479;-47
2022/05/06 06:30:13;;;;;;;6.90;6.30;;;19.30;56.70;;;;;;5080726;28;21621;-46
2022/05/06 06:32:53;;;;;;;8.07;7.27;;;19.30;56.70;;;;;;5089361;27;20549;-46
2022/05/06 06:35:23;;;;;;;6.83;6.13;;;19.30;56.70;;;;;;5066060;28;21311;-46
2022/05/06 06:37:55;;;;;;;8.20;7.40;;;19.30;56.70;;;;;;5100729;28;20462;-47
2022/05/06 06:40:25;;;;;;;9.00;8.20;;;19.30;56.70;;;;;;5078181;28;20447;-45
2022/05/06 06:42:53;;;;;;;8.07;7.30;;;19.30;56.70;;;;;;5080788;28;20463;-48
2022/05/06 06:45:42;;;;;;;10.13;9.20;;;19.30;56.80;;;;;;5074031;28;20481;-48
2022/05/06 06:48:26;;;;;;;14.20;10.87;;;19.30;56.90;;;;;;5082090;28;20472;-46
2022/05/06 06:51:11;;;;;;;11.10;9.90;;;19.30;57.00;;;;;;5065048;28;20443;-47
2022/05/06 06:53:53;;;;;;;10.77;9.67;;;19.30;56.90;;;;;;5084194;28;20540;-48
2022/05/06 06:56:21;;;;;;;8.90;8.10;;;19.30;57.00;;;;;;5053377;28;20786;-47
2022/05/06 06:58:50;;;;;;;11.00;9.87;;;19.30;56.90;;;;;;5064748;28;20848;-48
2022/05/06 07:01:18;;;;;;;6.90;6.03;;;19.30;56.90;;;;;;5062690;28;20950;-48
2022/05/06 07:03:47;;;;;;;6.77;6.17;;;19.30;56.80;;;;;;5079901;28;20444;-47
2022/05/06 07:11:55;;;;;;;8.77;6.17;;;19.40;56.70;;;;;;5063366;28;20528;-48
2022/05/06 07:14:26;;;;;;;6.53;6.03;;;19.30;56.60;;;;;;5045748;28;20902;-48
2022/05/06 07:16:55;;;;;;;7.00;6.00;;;19.30;56.60;;;;;;5078497;28;20471;-48
2022/05/06 07:19:24;;;;;;;5.80;5.30;;;19.40;56.70;;;;;;5083793;28;20526;-48
2022/05/06 07:21:54;;;;;;;5.90;5.40;;;19.40;56.60;;;;;;5064413;28;20542;-47
2022/05/06 07:24:24;;;;;;;6.63;5.93;;;19.40;56.60;;;;;;5087573;28;20423;-47
2022/05/06 07:26:54;;;;;;;5.87;5.37;;;19.40;56.60;;;;;;5071097;28;20472;-47
2022/05/06 07:29:22;;;;;;;6.27;5.73;;;19.40;56.60;;;;;;5064349;28;20452;-48
2022/05/06 07:31:51;;;;;;;5.70;5.20;;;19.40;56.70;;;;;;5076755;28;20492;-48
2022/05/06 07:34:19;;;;;;;5.97;5.20;;;19.40;56.60;;;;;;5056277;28;20443;-47
2022/05/06 07:36:48;;;;;;;5.40;4.90;;;19.40;56.60;;;;;;5083293;28;20472;-46
2022/05/06 07:39:17;;;;;;;6.03;5.53;;;19.30;56.40;;;;;;5083801;28;20789;-46
2022/05/06 07:41:47;;;;;;;5.60;5.10;;;19.40;56.60;;;;;;5081744;28;20689;-49
2022/05/06 07:44:15;;;;;;;5.60;5.20;;;19.40;56.50;;;;;;5082693;28;20530;-48
2022/05/06 07:46:43;;;;;;;6.30;4.90;;;19.40;56.60;;;;;;5083249;28;20472;-46
2022/05/06 07:49:12;;;;;;;6.20;5.70;;;19.40;56.50;;;;;;5078825;28;20517;-47
2022/05/06 07:51:40;;;;;;;5.80;5.30;;;19.40;56.60;;;;;;5074927;28;21380;-46
2022/05/06 07:54:08;;;;;;;5.47;4.97;;;19.40;56.60;;;;;;5063364;28;21017;-47
2022/05/06 07:56:38;;;;;;;6.20;5.70;;;19.40;56.50;;;;;;5072346;28;20867;-48
2022/05/06 07:59:06;;;;;;;4.80;4.40;;;19.40;56.50;;;;;;5082920;28;20432;-47
2022/05/06 08:04:35;;;;;;;5.80;5.40;;;19.40;56.50;;;;;;5022156;28;20455;-46
2022/05/06 08:07:05;;;;;;;6.00;5.50;;;19.40;56.50;;;;;;5020066;28;20572;-47
2022/05/06 08:09:34;;;;;;;6.13;5.63;;;19.40;56.50;;;;;;5059027;28;20878;-48
2022/05/06 08:12:04;;;;;;;5.00;4.13;;;19.40;56.50;;;;;;5072853;28;20551;-47
2022/05/06 08:14:32;;;;;;;5.60;4.93;;;19.40;56.60;;;;;;5080307;28;20458;-47
2022/05/06 08:17:00;;;;;;;6.10;5.50;;;19.40;56.50;;;;;;5094447;28;20456;-45
2022/05/06 08:19:29;;;;;;;5.40;4.87;;;19.40;56.60;;;;;;5080817;28;20506;-48
2022/05/06 08:21:57;;;;;;;5.60;5.10;;;19.40;56.50;;;;;;5056319;28;20460;-47
2022/05/06 08:24:25;;;;;;;6.30;5.40;;;19.40;56.40;;;;;;5082758;28;20812;-46
2022/05/06 08:26:53;;;;;;;5.73;5.27;;;19.40;56.60;;;;;;5080075;28;20555;-46
2022/05/06 08:29:23;;;;;;;5.60;5.10;;;19.40;56.50;;;;;;5100813;28;20463;-46
2022/05/06 08:31:52;;;;;;;5.03;4.60;;;19.40;56.60;;;;;;5099865;28;20469;-45
2022/05/06 08:34:20;;;;;;;5.03;4.63;;;19.40;57.80;;;;;;5048138;28;20497;-46
2022/05/06 08:36:49;;;;;;;6.20;5.70;;;19.40;56.60;;;;;;5080689;28;20505;-50
2022/05/06 08:39:17;;;;;;;4.70;4.30;;;19.40;56.50;;;;;;5084916;28;20439;-47
2022/05/06 08:41:45;;;;;;;5.73;5.23;;;19.40;56.50;;;;;;5082613;28;20491;-47
2022/05/06 08:52:34;;;;;;;9.90;7.90;;;19.40;56.70;;;;;;5075668;28;20472;-47
2022/05/06 08:55:02;;;;;;;6.50;5.90;;;19.40;56.70;;;;;;5080123;28;20654;-46
2022/05/06 08:57:31;;;;;;;6.03;5.43;;;19.40;56.60;;;;;;5064355;28;20460;-48
2022/05/06 08:59:59;;;;;;;9.40;6.40;;;19.40;56.60;;;;;;5072864;28;20432;-47
2022/05/06 09:02:30;;;;;;;6.03;5.53;;;19.40;56.60;;;;;;5061046;28;20477;-48
2022/05/06 09:04:59;;;;;;;6.17;5.20;;;19.40;56.60;;;;;;5067092;28;20719;-46
2022/05/06 09:07:27;;;;;;;6.33;5.73;;;19.40;56.60;;;;;;5067073;28;20474;-46
2022/05/06 09:10:13;;;;;;;5.47;4.60;;;19.40;56.70;;;;;;5081929;28;20475;-48
2022/05/06 09:12:44;;;;;;;5.63;5.10;;;19.40;56.70;;;;;;5066933;28;20541;-48
2022/05/06 09:18:00;;;;;;;7.13;5.00;;;19.40;56.70;;;;;;5088927;28;20531;-46
2022/05/06 09:20:29;;;;;;;5.43;4.90;;;19.40;56.70;;;;;;5081565;28;20443;-46
2022/05/06 09:22:58;;;;;;;5.67;5.17;;;19.40;56.80;;;;;;5099333;28;20468;-48
2022/05/06 09:25:39;;;;;;;6.33;5.83;;;19.30;56.70;;;;;;5094634;28;20560;-47
2022/05/06 09:28:20;;;;;;;6.30;5.70;;;19.30;56.60;;;;;;5092596;28;20461;-48
2022/05/06 09:30:59;;;;;;;5.93;5.43;;;19.40;56.70;;;;;;5107201;28;20952;-46
2022/05/06 09:33:30;;;;;;;5.60;5.10;;;19.30;56.70;;;;;;5083754;28;20474;-45
2022/05/06 09:35:59;;;;;;;5.97;5.20;;;19.30;56.70;;;;;;5083169;28;20482;-48
2022/05/06 09:38:29;;;;;;;5.83;5.30;;;19.30;56.60;;;;;;5085139;28;20456;-46
2022/05/06 09:40:58;;;;;;;4.90;4.50;;;19.30;56.70;;;;;;5078011;28;20440;-48
2022/05/06 09:43:27;;;;;;;5.70;5.20;;;19.30;56.60;;;;;;5089905;28;20752;-47
2022/05/06 09:45:56;;;;;;;5.67;4.67;;;19.30;56.60;;;;;;5105498;28;20473;-48
2022/05/06 09:48:24;;;;;;;5.67;5.13;;;19.30;56.60;;;;;;5080667;28;20465;-48
2022/05/06 09:50:54;;;;;;;5.90;4.30;;;19.30;56.60;;;;;;5097396;28;20460;-47
2022/05/06 09:53:26;;;;;;;5.53;5.10;;;19.30;56.70;;;;;;5100736;28;20483;-45
2022/05/06 09:55:57;;;;;;;4.70;4.20;;;19.30;56.70;;;;;;5083374;28;20461;-46
2022/05/06 09:58:28;;;;;;;4.67;4.27;;;19.30;56.70;;;;;;5088370;28;20722;-46
2022/05/06 10:00:56;;;;;;;5.27;4.87;;;19.30;56.70;;;;;;5088512;28;20442;-48
2022/05/06 10:03:24;;;;;;;5.33;4.90;;;19.30;56.70;;;;;;5104614;28;21069;-48
2022/05/06 10:05:54;;;;;;;5.20;4.80;;;19.30;56.70;;;;;;5079032;28;21158;-48
2022/05/06 10:08:24;;;;;;;4.90;4.50;;;19.30;56.70;;;;;;5092107;28;20740;-46
2022/05/06 10:10:58;;;;;;;5.10;4.70;;;19.30;56.70;;;;;;5090580;28;20732;-48
2022/05/06 10:13:30;;;;;;;5.30;4.90;;;19.30;56.70;;;;;;5084292;28;20507;-46
2022/05/06 10:15:59;;;;;;;5.00;4.60;;;19.30;56.70;;;;;;5084788;28;20444;-47
2022/05/06 10:18:33;;;;;;;5.20;4.73;;;19.30;56.70;;;;;;5083870;28;20538;-45
2022/05/06 10:21:03;;;;;;;4.50;4.10;;;19.30;56.70;;;;;;5082801;28;20492;-47
2022/05/06 10:23:48;;;;;;;5.67;5.17;;;19.30;56.70;;;;;;5095435;28;20841;-47
2022/05/06 10:26:39;;;;;;;4.10;3.80;;;19.30;56.70;;;;;;5085247;28;20587;-47
2022/05/06 10:35:09;;;;;;;5.50;5.00;;;19.30;56.70;;;;;;5093576;28;20451;-47
2022/05/06 10:37:40;;;;;;;5.47;4.67;;;19.30;56.70;;;;;;5084524;28;20909;-47
2022/05/06 10:40:33;;;;;;;5.83;5.10;;;19.30;56.60;;;;;;5083728;28;20508;-48
2022/05/06 10:43:04;;;;;;;4.90;4.50;;;19.30;56.60;;;;;;5075240;28;20467;-49
2022/05/06 10:45:34;;;;;;;4.93;4.53;;;19.30;56.60;;;;;;5084054;28;20854;-48
2022/05/06 10:48:02;;;;;;;5.13;4.63;;;19.30;56.70;;;;;;5084297;28;20929;-46
2022/05/06 10:50:39;;;;;;;5.00;4.50;;;19.30;56.70;;;;;;5080968;28;20565;-47
2022/05/06 10:53:35;;;;;;;5.23;4.60;;;19.30;56.70;;;;;;5084327;28;20471;-46
2022/05/06 10:56:03;;;;;;;6.67;4.87;;;19.30;56.70;;;;;;5085338;28;20913;-48
2022/05/06 10:58:31;;;;;;;4.93;4.53;;;19.30;56.60;;;;;;5105090;28;20449;-48
2022/05/06 11:01:01;;;;;;;4.83;4.43;;;19.30;56.70;;;;;;5103746;28;20427;-48
2022/05/06 11:03:29;;;;;;;5.27;4.77;;;19.30;56.70;;;;;;5105242;28;20459;-45
2022/05/06 11:05:57;;;;;;;4.70;4.23;;;19.40;56.80;;;;;;5082919;28;20522;-48
2022/05/06 11:08:34;;;;;;;4.90;4.50;;;19.30;56.70;;;;;;5071961;28;20835;-47
2022/05/06 11:11:13;;;;;;;4.30;3.97;;;19.40;56.80;;;;;;5076687;28;20470;-49
2022/05/06 11:13:44;;;;;;;5.17;4.77;;;19.30;56.70;;;;;;5085769;28;20474;-48
2022/05/06 11:16:14;;;;;;;5.60;5.10;;;19.30;56.70;;;;;;5083561;28;20863;-46
2022/05/06 11:18:43;;;;;;;5.60;5.20;;;19.40;56.80;;;;;;5084567;28;20432;-48
2022/05/06 11:21:22;;;;;;;5.70;4.73;;;19.40;56.80;;;;;;5067701;28;20470;-48
2022/05/06 11:23:52;;;;;;;4.30;3.90;;;19.40;56.70;;;;;;5075118;28;20834;-48
2022/05/06 11:26:26;;;;;;;4.97;4.47;;;19.40;56.70;;;;;;5079144;28;20494;-48
2022/05/06 11:29:04;;;;;;;5.30;4.90;;;19.40;56.70;;;;;;5079909;28;20521;-47
2022/05/06 11:31:33;;;;;;;4.90;4.50;;;19.40;56.90;;;;;;5083063;28;20554;-48
2022/05/06 11:34:04;;;;;;;4.47;4.07;;;19.40;56.70;;;;;;5090637;28;20452;-46
2022/05/06 11:36:33;;;;;;;4.93;4.53;;;19.40;56.80;;;;;;5080359;28;20914;-48
2022/05/06 11:39:11;;;;;;;5.40;4.90;;;19.40;56.70;;;;;;5102912;28;20435;-48
2022/05/06 11:41:39;;;;;;;5.33;4.07;;;19.40;56.90;;;;;;5076426;28;20456;-46
2022/05/06 11:44:07;;;;;;;5.30;4.80;;;19.40;57.00;;;;;;5081478;28;20462;-45
2022/05/06 11:49:26;;;;;;;4.70;4.27;;;19.40;56.80;;;;;;5089433;28;20978;-44
2022/05/06 11:51:56;;;;;;;4.37;4.00;;;19.40;56.90;;;;;;5098745;28;20470;-47
2022/05/06 11:54:28;;;;;;;5.87;5.37;;;19.40;57.00;;;;;;5095548;28;20425;-48
2022/05/06 11:56:56;;;;;;;6.27;5.77;;;19.40;56.80;;;;;;5070603;28;20468;-47
2022/05/06 11:59:24;;;;;;;7.83;7.13;;;19.40;56.50;;;;;;5085037;28;20439;-49
2022/05/06 12:01:54;;;;;;;6.10;5.50;;;19.40;56.40;;;;;;5081400;28;20471;-47
2022/05/06 12:04:30;;;;;;;6.10;5.50;;;19.50;56.40;;;;;;5066495;28;20439;-47
2022/05/06 12:06:58;;;;;;;6.40;5.83;;;19.40;56.40;;;;;;5063296;28;20475;-47
2022/05/06 12:09:28;;;;;;;5.87;5.37;;;19.50;56.40;;;;;;5063894;28;20420;-45
2022/05/06 12:12:05;;;;;;;7.97;6.00;;;19.50;56.50;;;;;;5075333;28;20491;-46
2022/05/06 12:14:33;;;;;;;5.00;4.63;;;19.50;56.60;;;;;;5082665;28;20918;-48
2022/05/06 12:17:03;;;;;;;5.37;4.87;;;19.50;56.60;;;;;;5080635;28;20475;-48
2022/05/06 12:19:35;;;;;;;9.80;8.80;;;19.50;56.60;;;;;;5076710;28;20933;-47
2022/05/06 12:22:05;;;;;;;9.23;8.33;;;19.50;55.30;;;;;;5076389;28;20534;-48
2022/05/06 12:24:42;;;;;;;9.30;7.60;;;19.50;55.40;;;;;;5082268;28;20439;-47
2022/05/06 12:27:13;;;;;;;6.90;6.30;;;19.50;55.60;;;;;;5050881;28;20494;-47
2022/05/06 12:29:43;;;;;;;8.63;5.90;;;19.50;55.80;;;;;;5063375;28;20733;-48
2022/05/06 12:32:12;;;;;;;5.90;5.30;;;19.50;56.00;;;;;;5063107;28;20464;-46
2022/05/06 12:34:40;;;;;;;6.20;5.70;;;19.50;56.20;;;;;;5062920;28;20463;-45
2022/05/06 12:37:16;;;;;;;5.80;5.30;;;19.50;56.20;;;;;;5063235;28;20468;-45
2022/05/06 12:39:48;;;;;;;6.33;5.80;;;19.50;56.20;;;;;;5063079;28;20409;-47
2022/05/06 12:42:18;;;;;;;7.10;5.47;;;19.50;56.30;;;;;;5062636;28;20585;-46
2022/05/06 12:45:04;;;;;;;6.40;5.80;;;19.50;56.20;;;;;;5062355;28;20918;-47
2022/05/06 12:50:18;;;;;;;5.63;5.13;;;19.50;56.40;;;;;;5066612;28;20555;-47
2022/05/06 12:52:46;;;;;;;5.93;5.47;;;19.50;56.40;;;;;;5066822;28;20594;-47
2022/05/06 12:55:16;;;;;;;6.10;5.13;;;19.50;56.30;;;;;;5066663;28;20978;-47
2022/05/06 12:57:45;;;;;;;6.20;5.70;;;19.50;56.30;;;;;;5085117;28;20540;-47
2022/05/06 13:00:14;;;;;;;5.50;4.93;;;19.50;56.40;;;;;;5087777;28;20750;-46
2022/05/06 13:02:42;;;;;;;6.03;5.47;;;19.50;56.40;;;;;;5087091;28;20493;-48
2022/05/06 13:05:12;;;;;;;6.07;5.47;;;19.50;56.30;;;;;;5072665;28;20478;-48
2022/05/06 13:07:40;;;;;;;6.00;5.10;;;19.50;56.20;;;;;;5085010;28;20460;-45
2022/05/06 13:10:12;;;;;;;5.43;4.93;;;19.60;56.50;;;;;;5079353;28;20944;-47
2022/05/06 13:12:45;;;;;;;5.80;5.20;;;19.60;56.30;;;;;;5081563;28;20463;-47
2022/05/06 13:15:14;;;;;;;5.43;4.63;;;19.60;56.20;;;;;;5060142;28;20444;-47
2022/05/06 13:17:43;;;;;;;5.00;4.50;;;19.60;56.20;;;;;;5058938;28;20471;-47
2022/05/06 13:20:11;;;;;;;6.50;5.90;;;19.60;56.20;;;;;;5080166;28;20445;-46
2022/05/06 13:22:39;;;;;;;5.03;4.63;;;19.60;56.30;;;;;;5081607;28;20468;-47
2022/05/06 13:25:09;;;;;;;5.13;4.73;;;19.60;56.30;;;;;;5085065;28;20493;-45
2022/05/06 13:27:38;;;;;;;6.10;5.50;;;19.60;56.30;;;;;;5068222;28;20908;-45
2022/05/06 13:30:09;;;;;;;5.23;4.83;;;19.60;56.20;;;;;;5069174;28;20480;-46
2022/05/06 13:32:38;;;;;;;4.80;4.40;;;19.60;56.30;;;;;;5085915;28;20475;-47
2022/05/06 13:35:11;;;;;;;4.63;4.27;;;19.60;56.40;;;;;;5079943;28;20791;-47
2022/05/06 13:37:39;;;;;;;5.27;4.80;;;19.60;56.40;;;;;;5085786;28;20908;-47
2022/05/06 13:40:08;;;;;;;4.90;4.50;;;19.60;56.50;;;;;;5081401;28;20981;-45
2022/05/06 13:42:36;;;;;;;5.30;4.80;;;19.60;56.50;;;;;;5065167;28;21327;-48
2022/05/06 13:45:07;;;;;;;5.23;4.83;;;19.70;56.20;;;;;;5079560;28;20401;-47
2022/05/06 13:47:36;;;;;;;5.17;4.70;;;19.70;56.10;;;;;;5076483;28;20515;-46
2022/05/06 13:50:05;;;;;;;4.50;4.10;;;19.70;56.30;;;;;;5077477;28;20470;-44
2022/05/06 13:52:34;;;;;;;5.20;4.70;;;19.70;56.30;;;;;;5077299;28;20954;-48
2022/05/06 13:55:04;;;;;;;5.60;5.10;;;19.70;56.40;;;;;;5076764;28;20441;-45
2022/05/06 14:00:33;;;;;;;4.30;4.00;;;19.70;56.30;;;;;;5050677;28;20445;-48